Time;durP1;ratioP1;P1;durP2;ratioP2;P2;SDS_P1;SDS_P2;PMS_P1;PMS_P2;Temp;Humidity;BMP_temperature;BMP_pressure;BME280_temperature;BME280_humidity;BME280_pressure;Samples;Min_cycle;Max_cycle;Signal;HPM_P1;HPM_P2
2022/04/26 03:44:35;;;;;;;25.33;17.73;;;11.30;98.90;;;;;;21080546;28;20234;-65
2022/04/26 03:54:37;;;;;;;33.00;19.47;;;11.20;98.70;;;;;;21080410;28;20801;-66
2022/04/26 04:04:38;;;;;;;29.13;18.23;;;11.10;98.80;;;;;;21079296;28;20232;-66
2022/04/26 04:14:40;;;;;;;33.27;18.57;;;11.10;98.80;;;;;;21078774;28;20205;-66
2022/04/26 04:24:42;;;;;;;31.53;19.33;;;11.00;98.80;;;;;;21070697;28;20659;-67
2022/04/26 04:34:44;;;;;;;31.13;18.83;;;11.10;99.10;;;;;;21076433;28;20202;-68
2022/04/26 04:44:45;;;;;;;31.33;19.10;;;11.10;99.00;;;;;;21091037;28;20233;-67
2022/04/26 04:54:47;;;;;;;44.10;27.63;;;10.90;98.80;;;;;;21094152;28;20214;-66
2022/04/26 05:04:50;;;;;;;32.97;19.90;;;10.80;98.90;;;;;;21092263;28;20229;-67
2022/04/26 05:14:51;;;;;;;31.17;19.50;;;10.70;99.00;;;;;;21091892;28;20207;-68
2022/04/26 05:24:53;;;;;;;32.83;19.10;;;10.70;99.30;;;;;;21090065;28;20249;-68
2022/04/26 05:35:06;;;;;;;34.93;20.10;;;10.90;99.30;;;;;;21090877;28;20611;-69
2022/04/26 05:45:07;;;;;;;34.50;19.73;;;11.00;99.20;;;;;;21089755;28;20241;-69
2022/04/26 05:55:09;;;;;;;30.97;19.07;;;11.10;99.30;;;;;;21088693;28;20288;-65
2022/04/26 06:05:11;;;;;;;30.63;19.17;;;11.00;99.40;;;;;;21087058;28;20564;-69
2022/04/26 06:15:14;;;;;;;28.07;18.90;;;11.10;99.40;;;;;;21085743;28;20209;-66
2022/04/26 06:25:17;;;;;;;27.03;18.17;;;11.20;99.50;;;;;;21079987;28;20242;-66
2022/04/26 06:35:19;;;;;;;25.90;17.30;;;11.30;99.40;;;;;;21085158;28;20233;-68
2022/04/26 06:45:20;;;;;;;35.50;21.73;;;11.20;99.40;;;;;;21085710;28;20256;-65
2022/04/26 06:55:22;;;;;;;28.37;17.30;;;11.20;99.50;;;;;;21086713;28;20214;-66
2022/04/26 07:05:24;;;;;;;27.47;16.17;;;11.20;99.50;;;;;;21084605;28;20698;-68
2022/04/26 07:15:26;;;;;;;26.83;17.70;;;11.20;99.40;;;;;;21082130;28;20206;-67
2022/04/26 07:25:28;;;;;;;24.57;16.90;;;11.30;99.90;;;;;;21082747;28;20246;-65
2022/04/26 07:35:30;;;;;;;19.30;13.33;;;11.50;99.60;;;;;;21080569;28;20206;-66
2022/04/26 07:45:32;;;;;;;16.20;12.33;;;11.50;99.30;;;;;;21080632;28;20278;-66
2022/04/26 07:55:37;;;;;;;16.13;12.13;;;11.50;99.20;;;;;;21079937;28;20521;-67
2022/04/26 08:05:38;;;;;;;15.63;12.43;;;11.60;99.10;;;;;;21079827;28;20235;-67
2022/04/26 08:15:40;;;;;;;16.37;11.87;;;11.70;98.80;;;;;;21081457;28;20296;-67
2022/04/26 08:36:03;;;;;;;17.97;12.33;;;11.90;98.40;;;;;;21074958;28;20199;-67
2022/04/26 08:46:07;;;;;;;16.83;12.10;;;12.20;98.20;;;;;;21075623;28;20241;-66
2022/04/26 08:56:08;;;;;;;17.57;11.77;;;12.50;97.80;;;;;;21076482;28;20681;-67
2022/04/26 09:06:13;;;;;;;14.70;10.90;;;12.50;98.00;;;;;;21077085;28;20239;-66
2022/04/26 09:16:18;;;;;;;12.37;9.80;;;12.30;97.50;;;;;;21075974;28;20207;-66
2022/04/26 09:26:19;;;;;;;14.30;10.63;;;12.20;97.10;;;;;;21081363;28;20332;-67
2022/04/26 09:36:24;;;;;;;11.30;9.13;;;12.20;97.10;;;;;;21090769;28;20210;-70
2022/04/26 09:46:44;;;;;;;11.77;8.70;;;12.40;97.30;;;;;;21089628;28;20236;-67
2022/04/26 09:56:46;;;;;;;13.33;9.80;;;12.30;96.80;;;;;;21089573;28;20241;-67
2022/04/26 10:06:56;;;;;;;14.10;9.60;;;12.30;97.20;;;;;;21088778;28;20697;-65
2022/04/26 10:16:59;;;;;;;10.82;9.38;;;12.10;96.70;;;;;;21085250;28;20468;-65
2022/04/26 10:27:22;;;;;;;11.53;8.30;;;12.40;96.40;;;;;;21082687;28;20637;-66
2022/04/26 10:37:32;;;;;;;13.77;8.57;;;12.50;96.40;;;;;;21086344;28;20209;-67
2022/04/26 10:47:34;;;;;;;11.17;8.73;;;12.50;96.40;;;;;;21086873;28;20230;-65
2022/04/26 10:57:42;;;;;;;12.47;8.77;;;12.70;96.50;;;;;;21085320;28;20213;-65
2022/04/26 11:07:46;;;;;;;10.50;8.10;;;12.80;96.40;;;;;;21084143;28;20253;-66
2022/04/26 11:17:55;;;;;;;10.10;7.87;;;12.80;96.60;;;;;;21082210;28;20236;-67
2022/04/26 11:28:06;;;;;;;11.27;7.90;;;12.60;95.60;;;;;;21081470;28;20237;-66
2022/04/26 11:38:13;;;;;;;12.60;8.00;;;12.50;95.40;;;;;;21097438;28;20211;-66
2022/04/26 11:48:17;;;;;;;7.30;6.23;;;12.80;95.20;;;;;;21080407;28;20236;-65
2022/04/26 11:58:21;;;;;;;7.70;6.60;;;13.10;95.10;;;;;;21080209;28;20211;-66
2022/04/26 12:08:23;;;;;;;9.80;6.10;;;13.10;95.20;;;;;;21079463;28;20663;-66
2022/04/26 12:18:25;;;;;;;7.60;6.27;;;13.30;93.80;;;;;;21079033;28;20295;-68
2022/04/26 12:28:28;;;;;;;4.37;3.90;;;13.40;93.50;;;;;;21074086;28;20580;-66
2022/04/26 12:38:31;;;;;;;5.47;4.20;;;13.50;93.20;;;;;;21078544;28;20614;-66
2022/04/26 12:58:54;;;;;;;4.47;3.53;;;13.70;91.80;;;;;;21081399;28;20311;-64
2022/04/26 13:08:56;;;;;;;5.53;3.23;;;14.00;91.90;;;;;;21093601;28;20243;-66
2022/04/26 13:18:58;;;;;;;4.00;3.20;;;14.30;89.90;;;;;;21092123;28;20324;-69
2022/04/26 13:29:00;;;;;;;4.13;2.93;;;14.20;90.00;;;;;;21091875;28;20733;-66
2022/04/26 13:39:02;;;;;;;5.43;2.90;;;14.20;87.50;;;;;;21082242;28;20654;-69
2022/04/26 13:49:04;;;;;;;3.20;2.30;;;14.10;87.70;;;;;;21005668;28;20237;-68
2022/04/26 13:59:05;;;;;;;3.00;2.60;;;13.90;87.90;;;;;;21003909;28;20207;-71
2022/04/26 14:09:07;;;;;;;3.10;2.53;;;13.80;88.60;;;;;;21003637;28;20239;-65
2022/04/26 14:29:29;;;;;;;3.80;3.23;;;14.10;89.40;;;;;;21056964;28;20234;-69
2022/04/26 14:39:32;;;;;;;4.00;3.60;;;15.10;88.00;;;;;;21085424;28;20251;-69
2022/04/26 14:49:35;;;;;;;4.30;3.87;;;16.40;86.20;;;;;;21084683;28;20234;-70
2022/04/26 14:59:45;;;;;;;4.83;4.00;;;15.50;84.80;;;;;;21084177;28;20666;-69
2022/04/26 15:09:52;;;;;;;8.43;4.60;;;15.20;85.60;;;;;;21083470;28;20234;-71
2022/04/26 15:19:55;;;;;;;6.10;3.87;;;16.00;85.70;;;;;;21082542;28;20244;-66
2022/04/26 15:29:57;;;;;;;4.60;3.67;;;16.80;85.10;;;;;;21082835;28;20235;-62
2022/04/26 15:39:59;;;;;;;3.60;3.00;;;17.10;78.90;;;;;;21088016;28;20209;-70
2022/04/26 15:50:01;;;;;;;3.40;3.10;;;17.00;78.80;;;;;;21081797;28;20231;-63
2022/04/26 16:00:04;;;;;;;4.07;3.40;;;15.70;78.60;;;;;;21083274;28;20246;-64
2022/04/26 16:20:30;;;;;;;4.67;3.90;;;14.80;83.00;;;;;;21087862;28;20325;-63
2022/04/26 16:30:33;;;;;;;4.53;3.60;;;15.20;83.90;;;;;;21071346;28;20237;-65
2022/04/26 16:40:35;;;;;;;4.23;3.83;;;16.80;79.60;;;;;;21078628;28;20214;-66
2022/04/26 16:50:37;;;;;;;5.10;4.60;;;17.00;80.50;;;;;;21086242;28;20361;-68
2022/04/26 17:00:41;;;;;;;5.63;5.07;;;16.10;81.30;;;;;;21080272;28;20287;-69
2022/04/26 17:10:44;;;;;;;5.67;5.00;;;14.90;84.00;;;;;;21082495;28;20240;-64
2022/04/26 17:20:45;;;;;;;5.27;4.73;;;14.50;85.10;;;;;;21160026;28;20228;-66
2022/04/26 17:30:47;;;;;;;7.03;4.80;;;14.00;87.90;;;;;;21162368;28;20233;-69
2022/04/26 17:40:49;;;;;;;7.27;5.00;;;13.80;89.40;;;;;;21163130;28;20206;-67
2022/04/26 17:50:50;;;;;;;6.97;5.43;;;13.60;90.20;;;;;;21174125;28;20237;-64
2022/04/26 18:00:53;;;;;;;6.87;6.00;;;13.00;91.40;;;;;;21174415;28;20221;-66
2022/04/26 18:10:57;;;;;;;7.80;6.30;;;12.60;92.40;;;;;;21171279;28;20319;-65
2022/04/26 18:21:00;;;;;;;7.37;6.07;;;12.30;93.60;;;;;;21171852;28;20270;-63
2022/04/26 18:31:02;;;;;;;9.17;6.57;;;12.10;93.90;;;;;;21171856;27;20745;-63
2022/04/26 18:41:04;;;;;;;10.20;6.70;;;11.90;94.90;;;;;;21149118;28;20207;-64
2022/04/26 18:51:06;;;;;;;9.73;6.87;;;11.90;95.30;;;;;;21084518;28;20640;-63
2022/04/26 19:01:07;;;;;;;8.77;6.93;;;11.80;96.00;;;;;;21083537;28;20210;-64
2022/04/26 19:21:30;;;;;;;10.97;7.43;;;11.70;96.70;;;;;;21077291;28;20283;-67
2022/04/26 19:31:31;;;;;;;8.97;6.93;;;11.70;96.70;;;;;;21080120;28;20242;-65
2022/04/26 19:41:33;;;;;;;5.83;5.17;;;11.80;96.60;;;;;;21079571;28;20662;-63
2022/04/26 19:51:37;;;;;;;6.10;5.10;;;11.80;96.80;;;;;;21078702;28;20242;-65
2022/04/26 20:01:39;;;;;;;6.80;4.90;;;11.90;96.40;;;;;;21077583;28;20578;-69
2022/04/26 20:12:01;;;;;;;5.70;4.97;;;11.80;96.20;;;;;;21077962;28;20214;-65
2022/04/26 20:22:03;;;;;;;8.73;7.17;;;11.70;96.50;;;;;;21075215;28;20260;-65
2022/04/26 20:32:05;;;;;;;10.53;7.43;;;11.60;96.70;;;;;;21076159;28;20554;-65
2022/04/26 20:42:07;;;;;;;8.90;7.13;;;11.60;97.00;;;;;;21075010;28;20208;-69
2022/04/26 20:52:09;;;;;;;12.17;9.13;;;11.60;97.30;;;;;;21074903;28;20221;-65
2022/04/26 21:02:11;;;;;;;7.73;6.20;;;11.40;97.60;;;;;;21074405;28;20598;-69
2022/04/26 21:12:13;;;;;;;9.83;6.73;;;11.40;97.50;;;;;;21068578;28;20219;-70
2022/04/26 21:22:15;;;;;;;8.07;4.60;;;11.40;97.30;;;;;;21077346;28;20237;-68
2022/04/26 21:32:16;;;;;;;5.57;4.60;;;11.40;97.60;;;;;;21089218;28;20218;-67
2022/04/26 21:42:18;;;;;;;6.37;4.17;;;11.20;97.20;;;;;;21088848;28;20205;-67
2022/04/26 21:52:20;;;;;;;7.07;6.07;;;11.30;97.10;;;;;;21088368;28;20211;-64
2022/04/26 22:02:21;;;;;;;7.73;5.67;;;11.20;97.00;;;;;;21087273;28;20206;-66
2022/04/26 22:12:23;;;;;;;6.80;5.47;;;11.20;97.30;;;;;;21086615;28;21009;-64
2022/04/26 22:22:25;;;;;;;9.70;7.00;;;11.10;97.50;;;;;;21073382;28;20259;-70
2022/04/26 22:32:27;;;;;;;7.73;6.60;;;11.10;97.60;;;;;;21083738;28;20206;-67
2022/04/26 22:42:29;;;;;;;8.90;6.70;;;10.90;97.90;;;;;;21085092;28;20644;-64
2022/04/26 22:52:31;;;;;;;9.63;7.50;;;10.80;98.20;;;;;;21084007;28;20618;-63
2022/04/26 23:02:33;;;;;;;9.70;7.43;;;10.80;98.40;;;;;;21084171;28;20205;-70
2022/04/26 23:12:35;;;;;;;10.17;7.77;;;10.80;98.60;;;;;;21084003;28;20222;-69
2022/04/26 23:22:37;;;;;;;9.20;7.80;;;10.70;98.80;;;;;;21083237;28;20235;-67
2022/04/26 23:32:39;;;;;;;9.90;8.40;;;10.60;98.80;;;;;;21086003;28;20264;-69
2022/04/26 23:42:41;;;;;;;9.83;8.47;;;10.60;99.40;;;;;;21084778;28;20204;-64
2022/04/26 23:52:55;;;;;;;10.43;8.23;;;10.60;99.70;;;;;;21081263;28;20610;-67
